Time,TemperatureF,DewpointF,PressureIn,WindDirection,WindDirectionDegrees,WindSpeedMPH,WindSpeedGustMPH,Humidity,HourlyPrecipIn,Conditions,Clouds,dailyrainin,SolarRadiationWatts/m^2,SoftwareType,DateUTC
2013-02-24 00:01:00,26.0,23.0,-100.00,NW,324,3.0,8.0,90,0.00,,,0.00,0.000000,,2013-02-24 06:01:00,
2013-02-24 00:11:00,26.0,23.0,-100.00,NW,324,3.0,8.0,90,0.00,,,0.00,0.000000,,2013-02-24 06:11:00,
2013-02-24 00:12:00,26.0,23.0,-100.00,NNW,341,3.0,6.0,90,0.00,,,0.00,0.000000,,2013-02-24 06:12:00,
2013-02-24 00:32:00,26.0,23.0,-100.00,NNW,341,3.0,6.0,90,0.00,,,0.00,0.000000,,2013-02-24 06:32:00,
2013-02-24 00:42:00,26.0,23.0,-100.00,NNW,341,3.0,6.0,90,0.00,,,0.00,0.000000,,2013-02-24 06:42:00,
2013-02-24 00:52:00,26.0,23.0,-100.00,NNW,341,3.0,6.0,90,0.00,,,0.00,0.000000,,2013-02-24 06:52:00,
2013-02-24 01:01:00,26.0,23.0,-100.00,NNW,341,3.0,6.0,90,0.00,,,0.00,0.000000,,2013-02-24 07:01:00,
2013-02-24 01:32:00,25.0,22.0,-100.00,NW,312,4.0,5.0,90,0.00,,,0.00,0.000000,,2013-02-24 07:32:00,
2013-02-24 01:42:00,25.0,22.0,-100.00,NW,312,4.0,5.0,90,0.00,,,0.00,0.000000,,2013-02-24 07:42:00,
2013-02-24 01:52:00,25.0,22.0,-100.00,NW,312,4.0,5.0,90,0.00,,,0.00,0.000000,,2013-02-24 07:52:00,
2013-02-24 02:01:00,25.0,22.0,-100.00,NW,312,4.0,5.0,90,0.00,,,0.00,0.000000,,2013-02-24 08:01:00,
2013-02-24 02:11:00,25.0,22.0,-100.00,NW,312,4.0,5.0,90,0.00,,,0.00,0.000000,,2013-02-24 08:11:00,
2013-02-24 02:32:00,24.0,22.0,-100.00,WNW,297,4.0,6.0,90,0.00,,,0.00,0.000000,,2013-02-24 08:32:00,
2013-02-24 02:42:00,24.0,22.0,-100.00,WNW,297,4.0,6.0,90,0.00,,,0.00,0.000000,,2013-02-24 08:42:00,
2013-02-24 02:54:00,24.0,22.0,-100.00,WNW,297,4.0,6.0,90,0.00,,,0.00,0.000000,,2013-02-24 08:54:00,
2013-02-24 03:01:00,24.0,22.0,-100.00,WNW,297,4.0,6.0,90,0.00,,,0.00,0.000000,,2013-02-24 09:01:00,
2013-02-24 03:11:00,24.0,22.0,-100.00,WNW,297,4.0,6.0,90,0.00,,,0.00,0.000000,,2013-02-24 09:11:00,
2013-02-24 03:32:00,23.0,21.0,-100.00,WNW,303,4.0,6.0,90,0.00,,,0.00,0.000000,,2013-02-24 09:32:00,
2013-02-24 03:42:00,23.0,21.0,-100.00,WNW,303,4.0,6.0,90,0.00,,,0.00,0.000000,,2013-02-24 09:42:00,
2013-02-24 03:52:00,23.0,21.0,-100.00,WNW,303,4.0,6.0,90,0.00,,,0.00,0.000000,,2013-02-24 09:52:00,
2013-02-24 04:01:00,23.0,21.0,-100.00,WNW,303,4.0,6.0,90,0.00,,,0.00,0.000000,,2013-02-24 10:01:00,
2013-02-24 04:11:00,23.0,21.0,-100.00,WNW,303,4.0,6.0,90,0.00,,,0.00,0.000000,,2013-02-24 10:11:00,
2013-02-24 04:32:00,24.0,22.0,-100.00,NW,310,4.0,6.0,90,0.00,,,0.00,0.000000,,2013-02-24 10:32:00,
2013-02-24 04:42:00,24.0,22.0,-100.00,NW,310,4.0,6.0,90,0.00,,,0.00,0.000000,,2013-02-24 10:42:00,
2013-02-24 04:52:00,24.0,22.0,-100.00,NW,310,4.0,6.0,90,0.00,,,0.00,0.000000,,2013-02-24 10:52:00,
2013-02-24 05:01:00,24.0,22.0,-100.00,NW,310,4.0,6.0,90,0.00,,,0.00,0.000000,,2013-02-24 11:01:00,
2013-02-24 05:11:00,24.0,22.0,-100.00,NW,310,4.0,6.0,90,0.00,,,0.00,0.000000,,2013-02-24 11:11:00,
2013-02-24 05:32:00,24.0,21.0,-100.00,NW,316,4.0,9.0,89,0.00,,,0.00,0.000000,,2013-02-24 11:32:00,
2013-02-24 05:42:00,24.0,21.0,-100.00,NW,316,4.0,9.0,89,0.00,,,0.00,0.000000,,2013-02-24 11:42:00,
2013-02-24 05:53:00,24.0,21.0,-100.00,NW,316,4.0,9.0,89,0.00,,,0.00,0.000000,,2013-02-24 11:53:00,
2013-02-24 06:01:00,24.0,21.0,-100.00,NW,316,4.0,9.0,89,0.00,,,0.00,0.000000,,2013-02-24 12:01:00,
2013-02-24 06:11:00,24.0,21.0,-100.00,NW,316,4.0,9.0,89,0.00,,,0.00,0.000000,,2013-02-24 12:11:00,
2013-02-24 06:12:00,24.0,21.0,-100.00,NW,318,4.0,9.0,88,0.00,,,0.00,0.000000,,2013-02-24 12:12:00,
2013-02-24 06:33:00,24.0,21.0,-100.00,NW,318,4.0,9.0,88,0.00,,,0.00,0.000000,,2013-02-24 12:33:00,
2013-02-24 06:46:00,24.0,21.0,-100.00,NW,318,4.0,9.0,88,0.00,,,0.00,0.000000,,2013-02-24 12:46:00,
2013-02-24 06:56:00,24.0,21.0,-100.00,NW,318,4.0,9.0,88,0.00,,,0.00,0.000000,,2013-02-24 12:56:00,
2013-02-24 07:12:00,24.0,21.0,-100.00,NW,321,3.0,8.0,87,0.00,,,0.00,2.000000,,2013-02-24 13:12:00,
2013-02-24 07:35:00,24.0,21.0,-100.00,NW,321,3.0,8.0,87,0.00,,,0.00,2.000000,,2013-02-24 13:35:00,
2013-02-24 07:45:00,24.0,21.0,-100.00,NW,321,3.0,8.0,87,0.00,,,0.00,2.000000,,2013-02-24 13:45:00,
2013-02-24 07:55:00,24.0,21.0,-100.00,NW,321,3.0,8.0,87,0.00,,,0.00,2.000000,,2013-02-24 13:55:00,
2013-02-24 08:04:00,24.0,21.0,-100.00,NW,321,3.0,8.0,87,0.00,,,0.00,2.000000,,2013-02-24 14:04:00,
2013-02-24 08:12:00,26.0,22.0,-100.00,NW,323,4.0,7.0,83,0.00,,,0.00,29.000000,,2013-02-24 14:12:00,
2013-02-24 08:34:00,26.0,22.0,-100.00,NW,323,4.0,7.0,83,0.00,,,0.00,29.000000,,2013-02-24 14:34:00,
2013-02-24 08:45:00,26.0,22.0,-100.00,NW,323,4.0,7.0,83,0.00,,,0.00,29.000000,,2013-02-24 14:45:00,
2013-02-24 08:54:00,26.0,22.0,-100.00,NW,323,4.0,7.0,83,0.00,,,0.00,29.000000,,2013-02-24 14:54:00,
2013-02-24 09:32:00,29.0,22.0,-100.00,NNW,337,5.0,10.0,76,0.00,,,0.00,97.000000,,2013-02-24 15:32:00,
2013-02-24 09:42:00,29.0,22.0,-100.00,NNW,337,5.0,10.0,76,0.00,,,0.00,97.000000,,2013-02-24 15:42:00,
2013-02-24 09:53:00,29.0,22.0,-100.00,NNW,337,5.0,10.0,76,0.00,,,0.00,97.000000,,2013-02-24 15:53:00,
2013-02-24 10:01:00,29.0,22.0,-100.00,NNW,337,5.0,10.0,76,0.00,,,0.00,97.000000,,2013-02-24 16:01:00,
2013-02-24 10:11:00,29.0,22.0,-100.00,NNW,337,5.0,10.0,76,0.00,,,0.00,97.000000,,2013-02-24 16:11:00,
2013-02-24 10:32:00,31.0,23.0,-100.00,North,350,6.0,14.0,72,0.00,,,0.00,218.000000,,2013-02-24 16:32:00,
2013-02-24 10:42:00,31.0,23.0,-100.00,North,350,6.0,14.0,72,0.00,,,0.00,218.000000,,2013-02-24 16:42:00,
2013-02-24 10:52:00,31.0,23.0,-100.00,North,350,6.0,14.0,72,0.00,,,0.00,218.000000,,2013-02-24 16:52:00,
2013-02-24 11:01:00,31.0,23.0,-100.00,North,350,6.0,14.0,72,0.00,,,0.00,218.000000,,2013-02-24 17:01:00,
2013-02-24 11:11:00,31.0,23.0,-100.00,North,350,6.0,14.0,72,0.00,,,0.00,218.000000,,2013-02-24 17:11:00,
2013-02-24 11:32:00,36.0,24.0,-100.00,NNE,21,5.0,13.0,61,0.00,,,0.00,461.000000,,2013-02-24 17:32:00,
2013-02-24 11:42:00,36.0,24.0,-100.00,NNE,21,5.0,13.0,61,0.00,,,0.00,461.000000,,2013-02-24 17:42:00,
2013-02-24 11:53:00,36.0,24.0,-100.00,NNE,21,5.0,13.0,61,0.00,,,0.00,461.000000,,2013-02-24 17:53:00,
2013-02-24 12:01:00,36.0,24.0,-100.00,NNE,21,5.0,13.0,61,0.00,,,0.00,461.000000,,2013-02-24 18:01:00,
2013-02-24 12:11:00,36.0,24.0,-100.00,NNE,21,5.0,13.0,61,0.00,,,0.00,461.000000,,2013-02-24 18:11:00,
2013-02-24 12:32:00,41.0,26.0,-100.00,WSW,240,2.0,11.0,54,0.00,,,0.00,501.000000,,2013-02-24 18:32:00,
2013-02-24 13:32:00,40.0,24.0,-100.00,NNE,15,4.0,10.0,52,0.00,,,0.00,566.000000,,2013-02-24 19:32:00,
2013-02-24 13:42:00,40.0,24.0,-100.00,NNE,15,4.0,10.0,52,0.00,,,0.00,566.000000,,2013-02-24 19:42:00,
2013-02-24 13:52:00,40.0,24.0,-100.00,NNE,15,4.0,10.0,52,0.00,,,0.00,566.000000,,2013-02-24 19:52:00,
2013-02-24 14:02:00,40.0,24.0,-100.00,NNE,15,4.0,10.0,52,0.00,,,0.00,566.000000,,2013-02-24 20:02:00,
2013-02-24 14:11:00,40.0,24.0,-100.00,NNE,15,4.0,10.0,52,0.00,,,0.00,566.000000,,2013-02-24 20:11:00,
2013-02-24 14:32:00,36.0,21.0,-100.00,NW,325,2.0,7.0,54,0.00,,,0.00,226.000000,,2013-02-24 20:32:00,
2013-02-24 14:42:00,36.0,21.0,-100.00,NW,325,2.0,7.0,54,0.00,,,0.00,226.000000,,2013-02-24 20:42:00,
2013-02-24 14:52:00,36.0,21.0,-100.00,NW,325,2.0,7.0,54,0.00,,,0.00,226.000000,,2013-02-24 20:52:00,
2013-02-24 15:01:00,36.0,21.0,-100.00,NW,325,2.0,7.0,54,0.00,,,0.00,226.000000,,2013-02-24 21:01:00,
2013-02-24 15:11:00,36.0,21.0,-100.00,NW,325,2.0,7.0,54,0.00,,,0.00,226.000000,,2013-02-24 21:11:00,
2013-02-24 15:42:00,36.0,21.0,-100.00,WNW,286,3.0,6.0,53,0.00,,,0.00,141.000000,,2013-02-24 21:42:00,
2013-02-24 15:52:00,36.0,21.0,-100.00,WNW,286,3.0,6.0,53,0.00,,,0.00,141.000000,,2013-02-24 21:52:00,
2013-02-24 16:01:00,36.0,21.0,-100.00,WNW,286,3.0,6.0,53,0.00,,,0.00,141.000000,,2013-02-24 22:01:00,
2013-02-24 16:11:00,36.0,21.0,-100.00,WNW,286,3.0,6.0,53,0.00,,,0.00,141.000000,,2013-02-24 22:11:00,
2013-02-24 16:42:00,35.0,22.0,-100.00,NW,323,2.0,6.0,59,0.00,,,0.00,67.000000,,2013-02-24 22:42:00,
2013-02-24 16:52:00,35.0,22.0,-100.00,NW,323,2.0,6.0,59,0.00,,,0.00,67.000000,,2013-02-24 22:52:00,
2013-02-24 17:02:00,35.0,22.0,-100.00,NW,323,2.0,6.0,59,0.00,,,0.00,67.000000,,2013-02-24 23:02:00,
2013-02-24 17:11:00,35.0,22.0,-100.00,NW,323,2.0,6.0,59,0.00,,,0.00,67.000000,,2013-02-24 23:11:00,
2013-02-24 17:32:00,33.0,22.0,-100.00,NNE,24,2.0,7.0,63,0.00,,,0.00,23.000000,,2013-02-24 23:32:00,
2013-02-24 17:42:00,33.0,22.0,-100.00,NNE,24,2.0,7.0,63,0.00,,,0.00,23.000000,,2013-02-24 23:42:00,
2013-02-24 17:52:00,33.0,22.0,-100.00,NNE,24,2.0,7.0,63,0.00,,,0.00,23.000000,,2013-02-24 23:52:00,
2013-02-24 18:01:00,33.0,22.0,-100.00,NNE,24,2.0,7.0,63,0.00,,,0.00,23.000000,,2013-02-25 00:01:00,
2013-02-24 18:11:00,33.0,22.0,-100.00,NNE,24,2.0,7.0,63,0.00,,,0.00,23.000000,,2013-02-25 00:11:00,
2013-02-24 18:42:00,31.0,23.0,-100.00,ENE,65,4.0,7.0,71,0.00,,,0.00,1.000000,,2013-02-25 00:42:00,
2013-02-24 18:52:00,31.0,23.0,-100.00,ENE,65,4.0,7.0,71,0.00,,,0.00,1.000000,,2013-02-25 00:52:00,
2013-02-24 19:01:00,31.0,23.0,-100.00,ENE,65,4.0,7.0,71,0.00,,,0.00,1.000000,,2013-02-25 01:01:00,
2013-02-24 19:11:00,31.0,23.0,-100.00,ENE,65,4.0,7.0,71,0.00,,,0.00,1.000000,,2013-02-25 01:11:00,
2013-02-24 19:42:00,30.0,23.0,-100.00,ENE,71,4.0,6.0,75,0.00,,,0.00,0.000000,,2013-02-25 01:42:00,
2013-02-24 19:52:00,30.0,23.0,-100.00,ENE,71,4.0,6.0,75,0.00,,,0.00,0.000000,,2013-02-25 01:52:00,
2013-02-24 20:01:00,30.0,23.0,-100.00,ENE,71,4.0,6.0,75,0.00,,,0.00,0.000000,,2013-02-25 02:01:00,
2013-02-24 20:11:00,30.0,23.0,-100.00,ENE,71,4.0,6.0,75,0.00,,,0.00,0.000000,,2013-02-25 02:11:00,
2013-02-24 20:42:00,30.0,23.0,-100.00,East,88,3.0,6.0,76,0.00,,,0.00,0.000000,,2013-02-25 02:42:00,
2013-02-24 20:52:00,30.0,23.0,-100.00,East,88,3.0,6.0,76,0.00,,,0.00,0.000000,,2013-02-25 02:52:00,
2013-02-24 21:01:00,30.0,23.0,-100.00,East,88,3.0,6.0,76,0.00,,,0.00,0.000000,,2013-02-25 03:01:00,
2013-02-24 21:11:00,30.0,23.0,-100.00,East,88,3.0,6.0,76,0.00,,,0.00,0.000000,,2013-02-25 03:11:00,
2013-02-24 21:32:00,29.0,23.0,-100.00,ESE,104,2.0,4.0,77,0.00,,,0.00,0.000000,,2013-02-25 03:32:00,
2013-02-24 21:42:00,29.0,23.0,-100.00,ESE,104,2.0,4.0,77,0.00,,,0.00,0.000000,,2013-02-25 03:42:00,
2013-02-24 21:52:00,29.0,23.0,-100.00,ESE,104,2.0,4.0,77,0.00,,,0.00,0.000000,,2013-02-25 03:52:00,
2013-02-24 22:01:00,29.0,23.0,-100.00,ESE,104,2.0,4.0,77,0.00,,,0.00,0.000000,,2013-02-25 04:01:00,
2013-02-24 22:11:00,29.0,23.0,-100.00,ESE,104,2.0,4.0,77,0.00,,,0.00,0.000000,,2013-02-25 04:11:00,
2013-02-24 22:32:00,28.0,22.0,-100.00,ESE,108,3.0,5.0,79,0.00,,,-99.99,0.000000,,2013-02-25 04:32:00,
2013-02-24 22:42:00,28.0,22.0,-100.00,ESE,108,3.0,5.0,79,0.00,,,-99.99,0.000000,,2013-02-25 04:42:00,
2013-02-24 22:52:00,28.0,22.0,-100.00,ESE,108,3.0,5.0,79,0.00,,,-99.99,0.000000,,2013-02-25 04:52:00,
2013-02-24 23:01:00,28.0,22.0,-100.00,ESE,108,3.0,5.0,79,0.00,,,-99.99,0.000000,,2013-02-25 05:01:00,
2013-02-24 23:11:00,28.0,22.0,-100.00,ESE,108,3.0,5.0,79,0.00,,,-99.99,0.000000,,2013-02-25 05:11:00,
2013-02-24 23:32:00,28.0,23.0,-100.00,ESE,115,2.0,7.0,80,0.00,,,0.00,0.000000,,2013-02-25 05:32:00,
2013-02-24 23:42:00,28.0,23.0,-100.00,ESE,115,2.0,7.0,80,0.00,,,0.00,0.000000,,2013-02-25 05:42:00,
2013-02-24 23:52:00,28.0,23.0,-100.00,ESE,115,2.0,7.0,80,0.00,,,0.00,0.000000,,2013-02-25 05:52:00,